createdAt,value
2019-05-02T00:01:29.399Z,100022.59
2019-05-02T00:03:58.829Z,100012.64
2019-05-02T00:06:28.456Z,100014.38
2019-05-02T00:08:57.949Z,100026.44
2019-05-02T00:11:28.658Z,100017.94
2019-05-02T00:13:58.519Z,100006.46
2019-05-02T00:16:28.292Z,100005.69
2019-05-02T00:18:57.580Z,100008.97
2019-05-02T00:21:26.874Z,99989.83
2019-05-02T00:23:59.283Z,99997.73
2019-05-02T00:26:27.253Z,100002.12
2019-05-02T00:28:56.873Z,99997.77
2019-05-02T00:31:26.165Z,100006.84
2019-05-02T00:33:55.515Z,99999.72
2019-05-02T00:36:24.774Z,100008.56
2019-05-02T00:38:54.041Z,100004.56
2019-05-02T00:41:23.310Z,99992.75
2019-05-02T00:43:52.664Z,99988.34
2019-05-02T00:46:21.989Z,99985.13
2019-05-02T00:48:59.942Z,99984.69
2019-05-02T00:51:29.093Z,99970.05
2019-05-02T00:53:58.505Z,99968.65
2019-05-02T00:56:28.057Z,99964.42
2019-05-02T00:58:57.527Z,99960.30
2019-05-02T01:01:39.092Z,99959.73
2019-05-02T01:04:18.448Z,99948.48
2019-05-02T01:06:49.391Z,99946.25
2019-05-02T01:09:19.104Z,99934.22
2019-05-02T01:11:48.402Z,99934.02
2019-05-02T01:14:17.762Z,99928.30
2019-05-02T01:16:49.379Z,99920.75
2019-05-02T01:19:18.676Z,99914.44
2019-05-02T01:21:48.290Z,99917.22
2019-05-02T01:24:17.716Z,99916.16
2019-05-02T01:27:06.474Z,99913.20
2019-05-02T01:29:47.543Z,99914.57
2019-05-02T01:32:35.790Z,99905.05
2019-05-02T01:35:27.045Z,99908.14
2019-05-02T01:38:11.815Z,99895.23
2019-05-02T01:40:41.719Z,99899.11
2019-05-02T01:43:24.119Z,99894.00
2019-05-02T01:45:54.389Z,99886.52
2019-05-02T01:48:24.144Z,99886.52
2019-05-02T01:50:53.678Z,99873.34
2019-05-02T01:53:23.045Z,99878.03
2019-05-02T01:55:57.253Z,99873.66
2019-05-02T01:58:23.630Z,99860.75
2019-05-02T02:00:52.915Z,99852.81
2019-05-02T02:03:22.334Z,99856.41
2019-05-02T02:05:51.680Z,99848.37
2019-05-02T02:08:20.995Z,99838.96
2019-05-02T02:10:56.232Z,99834.63
2019-05-02T02:13:22.042Z,99809.59
2019-05-02T02:15:51.426Z,99825.53
2019-05-02T02:18:22.388Z,99812.59
2019-05-02T02:21:12.216Z,99807.09
2019-05-02T02:24:00.763Z,99806.06
2019-05-02T02:26:30.109Z,99802.50
2019-05-02T02:29:02.996Z,99792.60
2019-05-02T02:31:30.341Z,99793.59
2019-05-02T02:33:59.818Z,99784.28
2019-05-02T02:36:33.844Z,99784.11
2019-05-02T02:39:00.265Z,99783.54
2019-05-02T02:41:29.534Z,99773.31
2019-05-02T02:44:17.900Z,99769.19
2019-05-02T02:46:47.396Z,99773.92
2019-05-02T02:49:21.497Z,99765.59
2019-05-02T02:51:48.305Z,99761.86
2019-05-02T02:54:17.701Z,99769.76
2019-05-02T02:56:46.975Z,99764.25
2019-05-02T02:59:19.564Z,99760.13
2019-05-02T03:01:47.398Z,99764.86
2019-05-02T03:04:16.681Z,99766.23
2019-05-02T03:06:47.209Z,99766.48
2019-05-02T03:09:20.114Z,99748.08
2019-05-02T03:12:04.940Z,99741.03
2019-05-02T03:14:41.050Z,99755.03
2019-05-02T03:17:07.101Z,99742.16
2019-05-02T03:19:36.400Z,99754.32
2019-05-02T03:22:05.675Z,99742.72
2019-05-02T03:24:36.787Z,99745.76
2019-05-02T03:27:05.954Z,99748.78
2019-05-02T03:29:41.080Z,99741.42
2019-05-02T03:32:25.567Z,99743.36
2019-05-02T03:34:47.243Z,99741.14
2019-05-02T03:37:13.189Z,99745.55
2019-05-02T03:39:39.687Z,99739.20
2019-05-02T03:42:10.364Z,99746.72
2019-05-02T03:44:40.679Z,99723.30
2019-05-02T03:47:09.954Z,99719.44
2019-05-02T03:49:40.939Z,99717.91
2019-05-02T03:52:11.658Z,99715.83
2019-05-02T03:54:49.733Z,99702.54
2019-05-02T03:57:12.358Z,99706.45
2019-05-02T03:59:42.009Z,99697.64
2019-05-02T04:02:14.161Z,99692.31
2019-05-02T04:04:44.344Z,99694.14
2019-05-02T04:07:14.213Z,99691.59
2019-05-02T04:09:43.473Z,99687.59
2019-05-02T04:12:18.889Z,99677.52
2019-05-02T04:14:44.522Z,99683.55
2019-05-02T04:17:13.841Z,99673.60
2019-05-02T04:19:43.934Z,99678.98
2019-05-02T04:22:14.912Z,99680.11
2019-05-02T04:24:47.953Z,99679.46
2019-05-02T04:27:15.257Z,99676.52
2019-05-02T04:29:44.843Z,99678.90
2019-05-02T04:32:14.763Z,99671.86
2019-05-02T04:34:49.063Z,99682.49
2019-05-02T04:37:15.434Z,99680.48
2019-05-02T04:39:44.769Z,99680.48
2019-05-02T04:42:19.631Z,99680.80
2019-05-02T04:45:09.423Z,99681.85
2019-05-02T04:47:18.594Z,99686.10
2019-05-02T04:49:49.086Z,99681.73
2019-05-02T04:52:21.147Z,99683.34
2019-05-02T04:54:49.780Z,99676.47
2019-05-02T04:57:19.094Z,99676.15
2019-05-02T04:59:50.588Z,99679.86
2019-05-02T05:02:23.039Z,99668.38
2019-05-02T05:04:50.653Z,99667.44
2019-05-02T05:07:20.142Z,99668.38
2019-05-02T05:09:57.068Z,99673.92
2019-05-02T05:12:20.459Z,99656.28
2019-05-02T05:14:49.837Z,99657.17
2019-05-02T05:17:20.027Z,99656.28
2019-05-02T05:19:49.461Z,99657.86
2019-05-02T05:22:18.818Z,99657.73
2019-05-02T05:25:00.726Z,99653.23
2019-05-02T05:27:30.122Z,99659.63
2019-05-02T05:30:07.660Z,99654.69
2019-05-02T05:32:30.503Z,99659.80
2019-05-02T05:35:03.291Z,99660.28
2019-05-02T05:37:31.127Z,99663.23
2019-05-02T05:40:00.364Z,99656.72
2019-05-02T05:42:33.230Z,99664.16
2019-05-02T05:45:03.871Z,99662.59
2019-05-02T05:47:31.729Z,99652.67
2019-05-02T05:50:01.397Z,99660.61
2019-05-02T05:52:33.213Z,99659.91
2019-05-02T05:55:04.753Z,99661.69
2019-05-02T05:57:33.145Z,99655.76
2019-05-02T06:00:03.936Z,99645.75
2019-05-02T06:02:50.871Z,99649.50
2019-05-02T06:05:05.539Z,99647.89
2019-05-02T06:07:41.899Z,99650.32
2019-05-02T06:10:07.999Z,99640.55
2019-05-02T06:12:37.577Z,99638.13
2019-05-02T06:15:07.290Z,99636.63
2019-05-02T06:17:36.574Z,99642.08
2019-05-02T06:20:06.275Z,99636.00
2019-05-02T06:22:35.798Z,99638.61
2019-05-02T06:25:10.321Z,99639.05
2019-05-02T06:27:39.709Z,99635.95
2019-05-02T06:30:09.626Z,99645.06
2019-05-02T06:32:39.072Z,99635.80
2019-05-02T06:35:08.634Z,99643.86
2019-05-02T06:37:40.454Z,99643.05
2019-05-02T06:40:09.442Z,99631.84
2019-05-02T06:42:39.022Z,99640.11
2019-05-02T06:45:08.823Z,99635.75
2019-05-02T06:47:41.841Z,99635.95
2019-05-02T06:50:10.655Z,99642.75
2019-05-02T06:52:39.973Z,99616.97
2019-05-02T06:55:09.349Z,99633.35
2019-05-02T06:57:38.641Z,99629.92
2019-05-02T07:00:08.911Z,99619.95
2019-05-02T07:02:38.253Z,99630.53
2019-05-02T07:05:07.868Z,99628.39
2019-05-02T07:07:37.732Z,99627.52
2019-05-02T07:10:07.698Z,99626.36
2019-05-02T07:12:36.925Z,99623.14
2019-05-02T07:15:10.959Z,99626.70
2019-05-02T07:17:45.040Z,99630.91
2019-05-02T07:20:15.001Z,99620.42
2019-05-02T07:22:45.688Z,99621.17
2019-05-02T07:25:17.063Z,99613.06
2019-05-02T07:27:46.412Z,99617.67
2019-05-02T07:30:17.107Z,99621.14
2019-05-02T07:32:46.502Z,99626.45
2019-05-02T07:35:19.225Z,99620.37
2019-05-02T07:37:48.735Z,99617.66
2019-05-02T07:40:18.864Z,99611.73
2019-05-02T07:42:48.236Z,99615.77
2019-05-02T07:45:17.562Z,99621.16
2019-05-02T07:47:46.918Z,99620.37
2019-05-02T07:50:16.508Z,99620.98
2019-05-02T07:52:45.828Z,99617.12
2019-05-02T07:55:15.289Z,99611.99
2019-05-02T07:57:44.680Z,99608.15
2019-05-02T08:00:16.110Z,99603.45
2019-05-02T08:02:45.490Z,99606.76
2019-05-02T08:05:21.008Z,99602.49
2019-05-02T08:07:46.259Z,99602.86
2019-05-02T08:10:22.145Z,99603.02
2019-05-02T08:12:48.954Z,99606.19
2019-05-02T08:15:18.554Z,99600.70
2019-05-02T08:17:53.264Z,99603.86
2019-05-02T08:20:19.813Z,99604.47
2019-05-02T08:22:50.482Z,99607.63
2019-05-02T08:25:20.060Z,99605.44
2019-05-02T08:28:04.896Z,99607.33
2019-05-02T08:30:40.396Z,99603.72
2019-05-02T08:33:09.738Z,99596.28
2019-05-02T08:35:39.238Z,99597.14
2019-05-02T08:38:12.552Z,99604.25
2019-05-02T08:40:42.262Z,99609.00
2019-05-02T08:43:10.950Z,99597.86
2019-05-02T08:45:40.341Z,99594.27
2019-05-02T08:48:09.581Z,99603.94
2019-05-02T08:50:39.189Z,99579.69
2019-05-02T08:53:08.572Z,99570.22
2019-05-02T08:55:41.307Z,99594.11
2019-05-02T08:58:14.389Z,99579.57
2019-05-02T09:00:40.273Z,99589.97
2019-05-02T09:03:09.592Z,99596.06
2019-05-02T09:05:45.342Z,99597.03
2019-05-02T09:08:14.265Z,99593.30
2019-05-02T09:10:42.232Z,99589.23
2019-05-02T09:13:15.830Z,99591.69
2019-05-02T09:15:49.781Z,99587.38
2019-05-02T09:18:14.392Z,99590.61
2019-05-02T09:20:47.095Z,99584.78
2019-05-02T09:23:14.975Z,99597.97
2019-05-02T09:25:44.288Z,99595.23
2019-05-02T09:28:17.081Z,99596.61
2019-05-02T09:30:46.826Z,99597.83
2019-05-02T09:33:16.153Z,99593.80
2019-05-02T09:35:45.404Z,99597.84
2019-05-02T09:38:16.393Z,99594.34
2019-05-02T09:40:47.177Z,99605.78
2019-05-02T09:43:16.786Z,99590.78
2019-05-02T09:45:47.143Z,99589.80
2019-05-02T09:48:17.296Z,99598.41
2019-05-02T09:50:47.641Z,99584.78
2019-05-02T09:53:20.770Z,99583.89
2019-05-02T09:55:55.120Z,99567.44
2019-05-02T09:58:21.907Z,99565.80
2019-05-02T10:01:01.856Z,99586.17
2019-05-02T10:03:31.904Z,99574.93
2019-05-02T10:06:03.186Z,99574.48
2019-05-02T10:08:32.653Z,99580.49
2019-05-02T10:11:02.962Z,99565.09
2019-05-02T10:13:33.626Z,99576.26
2019-05-02T10:16:03.150Z,99568.14
2019-05-02T10:18:33.053Z,99563.78
2019-05-02T10:21:03.147Z,99569.84
2019-05-02T10:23:32.967Z,99568.66
2019-05-02T10:26:02.872Z,99574.16
2019-05-02T10:28:32.182Z,99558.68
2019-05-02T10:31:02.274Z,99555.16
2019-05-02T10:33:33.714Z,99539.79
2019-05-02T10:36:02.993Z,99540.02
2019-05-02T10:38:32.694Z,99544.88
2019-05-02T10:41:04.585Z,99534.61
2019-05-02T10:43:33.146Z,99535.03
2019-05-02T10:46:37.936Z,99538.59
2019-05-02T10:49:16.662Z,99518.16
2019-05-02T10:51:49.163Z,99526.16
2019-05-02T10:54:17.128Z,99522.55
2019-05-02T10:56:46.422Z,99524.62
2019-05-02T10:59:15.766Z,99518.91
2019-05-02T11:02:10.162Z,99524.35
2019-05-02T11:04:43.996Z,99537.23
2019-05-02T11:07:16.958Z,99545.48
2019-05-02T11:09:44.508Z,99553.08
2019-05-02T11:12:24.318Z,99555.23
2019-05-02T11:14:56.457Z,99548.66
2019-05-02T11:17:32.355Z,99548.66
2019-05-02T11:20:06.501Z,99549.56
2019-05-02T11:22:35.838Z,99560.86
2019-05-02T11:25:05.782Z,99557.30
2019-05-02T11:27:35.067Z,99556.97
2019-05-02T11:30:05.242Z,99559.58
2019-05-02T11:32:34.535Z,99573.30
2019-05-02T11:35:03.890Z,99595.64
2019-05-02T11:37:33.400Z,99616.82
2019-05-02T11:40:06.156Z,99585.94
2019-05-02T11:42:34.123Z,99610.84
2019-05-02T11:45:03.431Z,99611.64
2019-05-02T11:47:32.975Z,99608.00
2019-05-02T11:50:02.627Z,99592.00
2019-05-02T11:52:36.070Z,99586.47
2019-05-02T11:55:03.113Z,99574.50
2019-05-02T11:57:33.215Z,99574.86
2019-05-02T12:00:05.031Z,99574.56
2019-05-02T12:02:58.026Z,99577.19
2019-05-02T12:05:35.726Z,99560.00
2019-05-02T12:08:07.819Z,99571.00
2019-05-02T12:10:36.658Z,99572.98
2019-05-02T12:13:06.618Z,99568.94
2019-05-02T12:15:36.804Z,99556.89
2019-05-02T12:18:06.144Z,99567.61
2019-05-02T12:20:36.868Z,99561.91
2019-05-02T12:23:09.001Z,99557.11
2019-05-02T12:25:37.337Z,99563.99
2019-05-02T12:28:06.896Z,99554.31
2019-05-02T12:30:37.816Z,99565.95
2019-05-02T12:33:07.451Z,99555.94
2019-05-02T12:35:36.789Z,99586.25
2019-05-02T12:38:06.079Z,99581.84
2019-05-02T12:40:35.504Z,99580.34
2019-05-02T12:43:04.945Z,99581.04
2019-05-02T12:45:34.205Z,99580.94
2019-05-02T12:48:03.648Z,99572.85
2019-05-02T12:50:33.078Z,99583.14
2019-05-02T12:53:03.059Z,99565.34
2019-05-02T12:55:32.661Z,99569.65
2019-05-02T12:58:03.107Z,99576.78
2019-05-02T13:00:32.557Z,99573.34
2019-05-02T13:03:33.384Z,99573.73
2019-05-02T13:06:03.175Z,99588.41
2019-05-02T13:08:34.213Z,99579.48
2019-05-02T13:11:18.141Z,99581.57
2019-05-02T13:13:47.600Z,99583.66
2019-05-02T13:16:16.894Z,99577.49
2019-05-02T13:18:46.230Z,99590.05
2019-05-02T13:21:20.806Z,99585.19
2019-05-02T13:24:17.666Z,99584.33
2019-05-02T13:26:53.856Z,99590.03
2019-05-02T13:29:18.124Z,99589.72
2019-05-02T13:32:16.983Z,99585.80
2019-05-02T13:34:48.701Z,99588.21
2019-05-02T13:37:18.678Z,99591.18
2019-05-02T13:40:11.994Z,99583.31
2019-05-02T13:42:41.897Z,99584.43
2019-05-02T13:45:19.049Z,99586.42
2019-05-02T13:47:48.559Z,99584.23
2019-05-02T13:50:18.261Z,99586.00
2019-05-02T13:52:53.133Z,99597.16
2019-05-02T13:55:23.655Z,99588.67
2019-05-02T13:57:53.145Z,99585.23
2019-05-02T14:00:29.457Z,99608.25
2019-05-02T14:02:58.713Z,99598.05
2019-05-02T14:05:28.015Z,99601.02
2019-05-02T14:08:14.517Z,99591.56
2019-05-02T14:10:45.127Z,99604.39
2019-05-02T14:13:14.378Z,99609.84
2019-05-02T14:15:43.791Z,99616.36
2019-05-02T14:18:13.099Z,99622.41
2019-05-02T14:20:42.884Z,99628.08
2019-05-02T14:23:12.282Z,99636.81
2019-05-02T14:25:42.584Z,99637.37
2019-05-02T14:28:12.966Z,99626.58
2019-05-02T14:30:46.115Z,99632.00
2019-05-02T14:33:18.019Z,99620.09
2019-05-02T14:35:47.538Z,99626.81
2019-05-02T14:38:19.597Z,99627.95
2019-05-02T14:41:21.738Z,99631.54
2019-05-02T14:43:57.137Z,99615.84
2019-05-02T14:46:35.354Z,99636.48
2019-05-02T14:48:58.267Z,99638.20
2019-05-02T14:51:28.139Z,99636.94
2019-05-02T14:54:03.598Z,99638.13
2019-05-02T14:56:45.942Z,99637.80
2019-05-02T14:59:15.313Z,99647.39
2019-05-02T15:01:47.558Z,99642.06
2019-05-02T15:04:17.013Z,99643.45
2019-05-02T15:06:47.592Z,99644.83
2019-05-02T15:09:22.518Z,99636.61
2019-05-02T15:12:02.892Z,99638.59
2019-05-02T15:14:33.346Z,99639.09
2019-05-02T15:17:02.992Z,99650.78
2019-05-02T15:19:33.198Z,99645.66
2019-05-02T15:22:02.691Z,99649.63
2019-05-02T15:24:37.454Z,99646.31
2019-05-02T15:27:11.350Z,99648.67
2019-05-02T15:29:34.882Z,99654.03
2019-05-02T15:32:25.965Z,99653.20
2019-05-02T15:35:24.932Z,99653.70
2019-05-02T15:37:51.871Z,99656.20
2019-05-02T15:42:52.457Z,99662.50
2019-05-02T15:45:23.989Z,99664.11
2019-05-02T15:47:53.385Z,99661.74
2019-05-02T15:50:25.489Z,99652.49
2019-05-02T15:53:10.071Z,99667.98
2019-05-02T15:55:42.122Z,99658.77
2019-05-02T15:58:16.945Z,99667.58
2019-05-02T16:00:56.467Z,99670.69
2019-05-02T16:03:45.763Z,99670.30
2019-05-02T16:06:16.468Z,99672.06
2019-05-02T16:08:47.118Z,99668.66
2019-05-02T16:11:17.604Z,99675.19
2019-05-02T16:13:52.760Z,99674.71
2019-05-02T16:16:21.754Z,99674.77
2019-05-02T16:18:52.581Z,99673.06
2019-05-02T16:21:42.519Z,99671.47
2019-05-02T16:24:22.913Z,99680.01
2019-05-02T16:26:56.433Z,99680.07
2019-05-02T16:29:28.435Z,99685.77
2019-05-02T16:32:30.920Z,99692.41
2019-05-02T16:35:02.792Z,99688.39
2019-05-02T16:37:32.525Z,99696.63
2019-05-02T16:40:02.605Z,99689.45
2019-05-02T16:42:32.827Z,99691.85
2019-05-02T16:45:02.734Z,99692.12
2019-05-02T16:47:32.718Z,99690.48
2019-05-02T16:50:02.533Z,99702.58
2019-05-02T16:52:32.673Z,99696.45
2019-05-02T16:55:02.972Z,99700.52
2019-05-02T16:57:32.725Z,99705.27
2019-05-02T17:00:06.205Z,99709.94
2019-05-02T17:02:37.937Z,99704.00
2019-05-02T17:05:09.337Z,99716.90
2019-05-02T17:08:03.326Z,99725.53
2019-05-02T17:10:38.609Z,99720.16
2019-05-02T17:13:07.934Z,99726.52
2019-05-02T17:15:37.708Z,99733.83
2019-05-02T17:18:18.055Z,99732.23
2019-05-02T17:20:39.015Z,99740.77
2019-05-02T17:23:08.336Z,99735.95
2019-05-02T17:25:37.887Z,99746.62
2019-05-02T17:28:10.513Z,99739.92
2019-05-02T17:30:40.450Z,99749.59
2019-05-02T17:33:14.267Z,99755.75
2019-05-02T17:35:48.386Z,99755.55
2019-05-02T17:38:12.248Z,99755.13
2019-05-02T17:40:42.151Z,99757.87
2019-05-02T17:43:11.681Z,99766.34
2019-05-02T17:45:41.013Z,99771.87
2019-05-02T17:48:16.430Z,99784.60
2019-05-02T17:51:02.218Z,99774.63
2019-05-02T17:53:33.631Z,99787.73
2019-05-02T17:56:02.591Z,99789.15
2019-05-02T17:58:31.957Z,99788.58
2019-05-02T18:01:03.121Z,99788.19
2019-05-02T18:03:35.193Z,99787.80
2019-05-02T18:06:07.713Z,99786.66
2019-05-02T18:08:34.850Z,99785.42
2019-05-02T18:11:04.200Z,99775.59
2019-05-02T18:13:35.303Z,99778.68
2019-05-02T18:16:07.756Z,99783.17
2019-05-02T18:18:37.576Z,99782.45
2019-05-02T18:21:06.898Z,99784.64
2019-05-02T18:23:36.222Z,99790.36
2019-05-02T18:26:06.451Z,99782.67
2019-05-02T18:28:46.247Z,99778.74
2019-05-02T18:31:06.989Z,99772.50
2019-05-02T18:33:41.026Z,99787.50
2019-05-02T18:36:07.542Z,99795.58
2019-05-02T18:38:36.818Z,99801.88
2019-05-02T18:41:07.791Z,99807.45
2019-05-02T18:43:43.460Z,99808.56
2019-05-02T18:46:08.285Z,99801.11
2019-05-02T18:48:44.201Z,99804.45
2019-05-02T18:51:08.983Z,99800.59
2019-05-02T18:53:38.242Z,99787.72
2019-05-02T18:56:07.624Z,99793.78
2019-05-02T18:58:41.342Z,99792.98
2019-05-02T19:01:13.306Z,99792.98
2019-05-02T19:03:39.878Z,99804.59
2019-05-02T19:06:09.198Z,99806.47
2019-05-02T19:08:46.619Z,99810.17
2019-05-02T19:11:12.666Z,99810.02
2019-05-02T19:13:44.195Z,99811.61
2019-05-02T19:16:13.229Z,99819.33
2019-05-02T19:18:42.694Z,99830.16
2019-05-02T19:21:12.690Z,99828.88
2019-05-02T19:23:42.614Z,99826.76
2019-05-02T19:26:14.957Z,99830.65
2019-05-02T19:29:17.087Z,99833.71
2019-05-02T19:31:47.153Z,99837.88
2019-05-02T19:34:21.797Z,99837.70
2019-05-02T19:36:47.760Z,99843.23
2019-05-02T19:39:17.336Z,99847.33
2019-05-02T19:41:46.648Z,99848.14
2019-05-02T19:44:21.479Z,99851.40
2019-05-02T19:46:47.333Z,99853.57
2019-05-02T19:49:16.655Z,99856.82
2019-05-02T19:51:50.355Z,99864.19
2019-05-02T19:54:17.430Z,99864.13
2019-05-02T19:56:47.603Z,99868.69
2019-05-02T19:59:24.631Z,99859.31
2019-05-02T20:01:48.333Z,99864.21
2019-05-02T20:04:17.696Z,99860.62
2019-05-02T20:06:47.063Z,99865.02
2019-05-02T20:09:16.697Z,99868.07
2019-05-02T20:11:46.076Z,99869.70
2019-05-02T20:14:15.525Z,99873.81
2019-05-02T20:16:50.245Z,99882.29
2019-05-02T20:19:23.047Z,99898.73
2019-05-02T20:22:11.826Z,99911.02
2019-05-02T20:24:59.875Z,99903.81
2019-05-02T20:27:28.432Z,99914.33
2019-05-02T20:29:57.497Z,99909.97
2019-05-02T20:32:27.141Z,99909.70
2019-05-02T20:34:56.427Z,99912.99
2019-05-02T20:37:25.863Z,99911.36
2019-05-02T20:39:55.395Z,99913.56
2019-05-02T20:42:24.717Z,99906.72
2019-05-02T20:44:53.987Z,99909.19
2019-05-02T20:47:26.021Z,99909.48
2019-05-02T20:49:55.452Z,99909.75
2019-05-02T20:52:24.740Z,99911.14
2019-05-02T20:54:54.213Z,99904.59
2019-05-02T20:57:23.593Z,99906.22
2019-05-02T20:59:52.839Z,99906.23
2019-05-02T21:02:22.371Z,99911.43
2019-05-02T21:04:52.273Z,99908.14
2019-05-02T21:07:34.626Z,99910.31
2019-05-02T21:10:08.463Z,99906.49
2019-05-02T21:12:37.843Z,99901.02
2019-05-02T21:15:07.334Z,99909.47
2019-05-02T21:17:36.636Z,99910.83
2019-05-02T21:20:06.849Z,99911.65
2019-05-02T21:22:36.689Z,99916.01
2019-05-02T21:25:06.635Z,99911.08
2019-05-02T21:27:36.038Z,99923.33
2019-05-02T21:30:06.603Z,99927.12
2019-05-02T21:32:35.903Z,99937.73
2019-05-02T21:35:06.041Z,99938.81
2019-05-02T21:37:35.304Z,99934.69
2019-05-02T21:40:05.087Z,99939.28
2019-05-02T21:42:34.594Z,99937.88
2019-05-02T21:45:05.076Z,99939.47
2019-05-02T21:47:34.414Z,99942.45
2019-05-02T21:50:26.346Z,99942.13
2019-05-02T21:53:22.190Z,99937.72
2019-05-02T21:56:12.304Z,99945.27
2019-05-02T21:59:02.819Z,99936.23
2019-05-02T22:01:32.887Z,99946.55
2019-05-02T22:04:02.432Z,99943.28
2019-05-02T22:06:33.037Z,99941.38
2019-05-02T22:09:03.155Z,99941.98
2019-05-02T22:11:32.578Z,99935.44
2019-05-02T22:14:02.484Z,99936.04
2019-05-02T22:16:32.685Z,99941.22
2019-05-02T22:19:02.913Z,99943.70
2019-05-02T22:21:35.093Z,99958.13
2019-05-02T22:24:11.210Z,99961.95
2019-05-02T22:26:35.011Z,99962.74
2019-05-02T22:29:04.313Z,99958.33
2019-05-02T22:31:33.618Z,99964.56
2019-05-02T22:34:03.111Z,99963.98
2019-05-02T22:36:32.869Z,99964.23
2019-05-02T22:39:17.986Z,99960.11
2019-05-02T22:41:47.282Z,99959.02
2019-05-02T22:44:16.589Z,99962.87
2019-05-02T22:46:46.869Z,99965.08
2019-05-02T22:49:16.565Z,99972.70
2019-05-02T22:51:45.878Z,99968.38
2019-05-02T22:54:26.968Z,99963.75
2019-05-02T22:56:46.414Z,99972.46
2019-05-02T22:59:15.676Z,99977.40
2019-05-02T23:01:45.194Z,99975.48
2019-05-02T23:04:14.504Z,99979.03
2019-05-02T23:06:44.261Z,99984.23
2019-05-02T23:09:13.969Z,99985.84
2019-05-02T23:11:43.292Z,99980.88
2019-05-02T23:14:12.577Z,99992.02
2019-05-02T23:16:42.911Z,99994.13
2019-05-02T23:19:12.573Z,99989.16
2019-05-02T23:21:42.361Z,100002.43
2019-05-02T23:24:18.169Z,99999.67
2019-05-02T23:27:00.077Z,99997.29
2019-05-02T23:29:29.620Z,99989.50
2019-05-02T23:31:58.920Z,100000.49
2019-05-02T23:34:28.341Z,100002.39
2019-05-02T23:36:57.861Z,99998.28
2019-05-02T23:39:27.139Z,100012.17
2019-05-02T23:41:56.399Z,100005.94
2019-05-02T23:44:26.105Z,100009.96
2019-05-02T23:46:55.398Z,100009.07
2019-05-02T23:49:24.705Z,100010.20
2019-05-02T23:51:54.203Z,100011.72
2019-05-02T23:54:23.508Z,100017.09
2019-05-02T23:56:52.762Z,100014.64
2019-05-02T23:59:22.462Z,100016.55
